Time;durP1;ratioP1;P1;durP2;ratioP2;P2;SDS_P1;SDS_P2;PMS_P1;PMS_P2;Temp;Humidity;BMP_temperature;BMP_pressure;BME280_temperature;BME280_humidity;BME280_pressure;Samples;Min_cycle;Max_cycle;Signal;HPM_P1;HPM_P2
2023/09/13 00:01:50;;;;;;;8.18;3.25;;;18.70;99.90;;;;;;5086885;28;20036;-58
2023/09/13 00:04:16;;;;;;;10.25;2.65;;;18.70;99.90;;;;;;5079747;28;20044;-59
2023/09/13 00:06:41;;;;;;;9.48;2.70;;;18.70;99.90;;;;;;5100299;28;20047;-59
2023/09/13 00:09:08;;;;;;;8.45;2.40;;;18.70;99.90;;;;;;5093043;28;20065;-60
2023/09/13 00:11:35;;;;;;;8.15;2.08;;;18.70;99.90;;;;;;5079378;28;20043;-58
2023/09/13 00:14:01;;;;;;;11.40;3.60;;;18.70;99.90;;;;;;5077472;28;20490;-58
2023/09/13 00:16:27;;;;;;;9.48;2.60;;;18.70;99.90;;;;;;5092568;28;20075;-59
2023/09/13 00:18:53;;;;;;;10.43;2.53;;;18.60;99.90;;;;;;5096132;28;20048;-58
2023/09/13 00:21:20;;;;;;;12.05;2.88;;;18.60;99.90;;;;;;5100440;28;20094;-57
2023/09/13 00:23:46;;;;;;;9.52;2.83;;;18.60;99.90;;;;;;5112510;28;20647;-58
2023/09/13 00:26:14;;;;;;;8.82;2.33;;;18.60;99.90;;;;;;5085430;28;20032;-58
2023/09/13 00:28:39;;;;;;;9.68;2.33;;;18.60;99.90;;;;;;5093507;28;20051;-60
2023/09/13 00:31:09;;;;;;;10.85;2.92;;;18.60;99.90;;;;;;5103915;28;20036;-59
2023/09/13 00:33:34;;;;;;;10.02;2.92;;;18.60;99.90;;;;;;5093133;28;20058;-60
2023/09/13 00:36:00;;;;;;;6.28;2.38;;;18.60;99.90;;;;;;5095253;28;20499;-60
2023/09/13 00:38:26;;;;;;;6.40;2.33;;;18.60;99.90;;;;;;5103010;28;20636;-58
2023/09/13 00:40:52;;;;;;;9.90;2.88;;;18.60;99.90;;;;;;5096537;28;20044;-59
2023/09/13 00:43:18;;;;;;;10.35;2.25;;;18.50;99.90;;;;;;5078601;28;20043;-58
2023/09/13 00:45:47;;;;;;;6.43;2.40;;;18.50;99.90;;;;;;5097983;28;20044;-57
2023/09/13 00:48:14;;;;;;;9.20;2.97;;;18.50;99.90;;;;;;5096075;28;20376;-59
2023/09/13 00:50:41;;;;;;;6.53;2.42;;;18.40;99.90;;;;;;5101796;28;20124;-59
2023/09/13 00:53:09;;;;;;;8.75;2.17;;;18.30;99.90;;;;;;5097661;28;20092;-60
2023/09/13 00:55:35;;;;;;;8.48;2.78;;;18.40;99.90;;;;;;5094740;28;20032;-58
2023/09/13 00:58:04;;;;;;;10.43;2.20;;;18.30;99.90;;;;;;5107369;28;20056;-58
2023/09/13 01:00:30;;;;;;;7.32;2.38;;;18.30;99.90;;;;;;5103407;28;20055;-59
2023/09/13 01:02:56;;;;;;;8.65;2.38;;;18.20;99.90;;;;;;5102811;28;20054;-59
2023/09/13 01:05:22;;;;;;;9.43;1.85;;;18.20;99.90;;;;;;5103902;28;20048;-60
2023/09/13 01:07:48;;;;;;;6.05;2.03;;;18.20;99.90;;;;;;5085763;28;20170;-58
2023/09/13 01:10:14;;;;;;;10.68;2.17;;;18.20;99.90;;;;;;5101783;28;20039;-59
2023/09/13 01:12:40;;;;;;;6.82;1.92;;;18.20;99.90;;;;;;5101521;28;20511;-59
2023/09/13 01:15:07;;;;;;;5.97;1.80;;;18.20;99.90;;;;;;5102423;28;20070;-59
2023/09/13 01:17:56;;;;;;;5.78;2.03;;;18.20;99.90;;;;;;5079264;28;20386;-58
2023/09/13 01:20:41;;;;;;;6.43;1.83;;;18.10;99.90;;;;;;5112001;27;20127;-60
2023/09/13 01:23:21;;;;;;;5.72;1.90;;;18.20;99.90;;;;;;5102591;28;20091;-59
2023/09/13 01:25:59;;;;;;;5.97;2.13;;;18.20;99.90;;;;;;5098204;28;20070;-60
2023/09/13 01:28:36;;;;;;;6.82;1.70;;;18.20;99.90;;;;;;5101668;28;20035;-59
2023/09/13 01:31:05;;;;;;;4.15;1.23;;;18.20;99.90;;;;;;5109160;27;20078;-58
2023/09/13 01:33:31;;;;;;;7.05;1.70;;;18.20;99.90;;;;;;5083908;28;20040;-58
2023/09/13 01:35:57;;;;;;;7.45;2.05;;;18.10;99.90;;;;;;5098986;28;20059;-59
2023/09/13 01:38:23;;;;;;;4.95;1.70;;;18.10;99.90;;;;;;5083114;28;20434;-59
2023/09/13 01:40:50;;;;;;;7.72;2.42;;;18.20;99.90;;;;;;5102266;28;20039;-59
2023/09/13 01:43:18;;;;;;;7.38;1.90;;;18.10;99.90;;;;;;5084068;28;20562;-60
2023/09/13 01:45:44;;;;;;;7.13;1.80;;;18.10;99.90;;;;;;5084891;28;20130;-59
2023/09/13 01:48:11;;;;;;;5.32;1.92;;;18.00;99.90;;;;;;5103374;28;20600;-59
2023/09/13 01:50:38;;;;;;;7.72;2.08;;;18.10;99.90;;;;;;5107207;28;20043;-59
2023/09/13 01:53:04;;;;;;;6.20;2.05;;;18.00;99.90;;;;;;5086035;28;20047;-59
2023/09/13 01:55:33;;;;;;;4.93;1.52;;;18.10;99.90;;;;;;5065338;28;20534;-59
2023/09/13 01:57:58;;;;;;;7.10;2.35;;;18.00;99.90;;;;;;5100789;28;20039;-57
2023/09/13 02:00:24;;;;;;;9.20;2.00;;;18.00;99.90;;;;;;5097904;28;20031;-60
2023/09/13 02:02:50;;;;;;;8.15;2.20;;;18.00;99.90;;;;;;5102576;28;20568;-60
2023/09/13 02:05:16;;;;;;;9.30;2.60;;;18.00;99.90;;;;;;5078461;28;20104;-57
2023/09/13 02:07:41;;;;;;;5.75;1.98;;;17.90;99.90;;;;;;5095511;28;20072;-59
2023/09/13 02:10:07;;;;;;;6.90;2.20;;;18.00;99.90;;;;;;5100059;28;20055;-59
2023/09/13 02:12:33;;;;;;;10.50;2.53;;;18.00;99.90;;;;;;5098417;28;20032;-60
2023/09/13 02:14:59;;;;;;;8.95;2.53;;;18.00;99.90;;;;;;5092081;28;20042;-59
2023/09/13 02:17:24;;;;;;;6.47;2.63;;;17.90;99.90;;;;;;5094148;28;20054;-60
2023/09/13 02:19:50;;;;;;;8.90;2.80;;;17.90;99.90;;;;;;5083364;28;20032;-60
2023/09/13 02:22:17;;;;;;;7.55;2.00;;;17.90;99.90;;;;;;5106866;27;20031;-59
2023/09/13 02:24:43;;;;;;;9.15;2.40;;;17.90;99.90;;;;;;5095899;28;20031;-58
2023/09/13 02:27:08;;;;;;;8.05;2.30;;;17.90;99.90;;;;;;5099182;28;20036;-58
2023/09/13 02:29:34;;;;;;;8.35;2.40;;;17.80;99.90;;;;;;5095364;28;20040;-59
2023/09/13 02:32:00;;;;;;;7.38;1.95;;;17.90;99.90;;;;;;5099379;28;20474;-60
2023/09/13 02:34:25;;;;;;;10.13;2.55;;;17.80;99.90;;;;;;5102547;28;20074;-59
2023/09/13 02:36:51;;;;;;;6.90;2.75;;;17.80;99.90;;;;;;5085484;28;20538;-60
2023/09/13 02:39:37;;;;;;;8.10;2.55;;;17.80;99.90;;;;;;5093836;28;20052;-60
2023/09/13 02:42:04;;;;;;;8.48;2.45;;;17.80;99.90;;;;;;5097004;28;20111;-59
2023/09/13 02:44:31;;;;;;;8.00;2.30;;;17.70;99.90;;;;;;5101294;28;20059;-60
2023/09/13 02:46:57;;;;;;;7.57;2.40;;;17.70;99.90;;;;;;5098190;28;20048;-60
2023/09/13 02:49:24;;;;;;;9.00;2.45;;;17.70;99.90;;;;;;5099257;28;20426;-60
2023/09/13 02:51:53;;;;;;;10.13;2.25;;;17.70;99.90;;;;;;5097869;27;20116;-59
2023/09/13 02:54:20;;;;;;;5.85;2.15;;;17.70;99.90;;;;;;5095449;28;20122;-60
2023/09/13 02:56:49;;;;;;;11.15;2.35;;;17.70;99.90;;;;;;5095066;28;20047;-59
2023/09/13 02:59:15;;;;;;;7.07;2.00;;;17.70;99.90;;;;;;5102520;28;20530;-59
2023/09/13 03:01:42;;;;;;;7.75;2.30;;;17.70;99.90;;;;;;5106257;28;20047;-58
2023/09/13 03:04:08;;;;;;;4.90;1.90;;;17.70;99.90;;;;;;5080402;28;20042;-60
2023/09/13 03:06:34;;;;;;;6.43;1.73;;;17.70;99.90;;;;;;5087184;28;20052;-60
2023/09/13 03:09:00;;;;;;;8.15;1.95;;;17.70;99.90;;;;;;5093550;28;20138;-60
2023/09/13 03:11:25;;;;;;;10.30;2.13;;;17.70;99.90;;;;;;5088573;28;20044;-59
2023/09/13 03:13:57;;;;;;;8.15;2.47;;;17.70;99.90;;;;;;5100779;28;20043;-60
2023/09/13 03:16:23;;;;;;;7.93;2.33;;;17.80;99.90;;;;;;5099328;28;20129;-59
2023/09/13 03:18:50;;;;;;;6.55;2.70;;;17.70;99.90;;;;;;5100407;28;20383;-59
2023/09/13 03:21:18;;;;;;;9.95;2.60;;;17.70;99.90;;;;;;5092597;28;20104;-59
2023/09/13 03:23:45;;;;;;;11.50;3.05;;;17.60;99.90;;;;;;5100633;28;20502;-60
2023/09/13 03:26:16;;;;;;;6.03;2.50;;;17.50;99.90;;;;;;5093846;28;20040;-58
2023/09/13 03:28:47;;;;;;;11.10;2.58;;;17.50;99.90;;;;;;5101408;28;20051;-59
2023/09/13 03:31:17;;;;;;;10.07;2.80;;;17.50;99.90;;;;;;5085162;28;20043;-59
2023/09/13 03:33:44;;;;;;;12.32;3.28;;;17.40;99.90;;;;;;5085524;28;20044;-59
2023/09/13 03:36:12;;;;;;;9.65;3.33;;;17.40;99.90;;;;;;5100340;28;20044;-59
2023/09/13 03:38:39;;;;;;;11.05;3.17;;;17.30;99.90;;;;;;5083091;28;20042;-59
2023/09/13 03:41:06;;;;;;;8.73;2.63;;;17.20;99.90;;;;;;5085444;28;20043;-59
2023/09/13 03:43:32;;;;;;;8.68;2.60;;;17.20;99.90;;;;;;5085450;28;20036;-60
2023/09/13 03:45:58;;;;;;;11.65;3.50;;;17.10;99.90;;;;;;5093194;28;20402;-60
2023/09/13 03:48:24;;;;;;;7.20;2.25;;;17.10;99.90;;;;;;5098024;28;20031;-59
2023/09/13 03:50:50;;;;;;;13.48;2.67;;;17.00;99.90;;;;;;5089403;28;20035;-59
2023/09/13 03:53:16;;;;;;;9.63;3.22;;;16.90;99.90;;;;;;5100436;28;20492;-60
2023/09/13 03:55:43;;;;;;;9.23;2.38;;;16.90;99.90;;;;;;5097034;28;20078;-59
2023/09/13 03:58:08;;;;;;;8.52;2.20;;;16.80;99.90;;;;;;5097856;28;20130;-59
2023/09/13 04:00:38;;;;;;;7.72;2.47;;;16.70;99.90;;;;;;5097778;28;20686;-60
2023/09/13 04:03:04;;;;;;;7.75;2.53;;;16.70;99.90;;;;;;5101977;28;20114;-60
2023/09/13 04:05:30;;;;;;;7.32;2.22;;;16.60;99.90;;;;;;5081272;28;20047;-59
2023/09/13 04:07:59;;;;;;;6.97;2.10;;;16.60;99.90;;;;;;5096370;28;20643;-58
2023/09/13 04:10:25;;;;;;;7.65;1.85;;;16.40;99.90;;;;;;5113667;28;20044;-60
2023/09/13 04:12:54;;;;;;;7.13;2.00;;;16.40;99.90;;;;;;5084038;28;20789;-58
2023/09/13 04:15:20;;;;;;;9.43;2.97;;;16.20;99.90;;;;;;5094684;28;20505;-59
2023/09/13 04:17:46;;;;;;;11.50;2.35;;;16.20;99.90;;;;;;5098424;28;20364;-60
2023/09/13 04:20:12;;;;;;;9.38;2.92;;;16.20;99.90;;;;;;5100764;28;20039;-60
2023/09/13 04:22:38;;;;;;;6.43;2.20;;;16.20;99.90;;;;;;5114911;27;20075;-60
2023/09/13 04:25:04;;;;;;;5.07;2.05;;;16.10;99.90;;;;;;5104481;28;20051;-60
2023/09/13 04:27:31;;;;;;;12.85;2.88;;;16.20;99.90;;;;;;5106844;28;20139;-60
2023/09/13 04:29:56;;;;;;;10.00;2.47;;;16.10;99.90;;;;;;5097771;28;20059;-59
2023/09/13 04:32:24;;;;;;;8.35;2.30;;;16.10;99.90;;;;;;5100736;28;20445;-58
2023/09/13 04:34:50;;;;;;;10.85;2.53;;;16.10;99.90;;;;;;5099308;28;21279;-59
2023/09/13 04:37:16;;;;;;;8.18;2.47;;;16.10;99.90;;;;;;5098179;28;20097;-60
2023/09/13 04:39:42;;;;;;;6.45;2.13;;;16.20;99.90;;;;;;5098319;28;20051;-59
2023/09/13 04:42:08;;;;;;;7.65;2.25;;;16.20;99.90;;;;;;5097186;28;20135;-59
2023/09/13 04:44:34;;;;;;;7.50;2.83;;;16.10;99.90;;;;;;5086847;28;20040;-60
2023/09/13 04:47:00;;;;;;;8.70;2.88;;;16.20;99.90;;;;;;5087460;28;20051;-60
2023/09/13 04:49:26;;;;;;;9.15;3.20;;;16.20;99.90;;;;;;5104824;28;20043;-59
2023/09/13 04:51:52;;;;;;;8.48;2.65;;;16.10;99.90;;;;;;5103424;28;20040;-60
2023/09/13 04:54:22;;;;;;;7.32;2.53;;;16.10;99.90;;;;;;5098151;28;20047;-60
2023/09/13 04:56:48;;;;;;;8.30;3.08;;;16.10;99.90;;;;;;5081667;28;20060;-59
2023/09/13 04:59:14;;;;;;;9.90;3.13;;;16.10;99.90;;;;;;5102177;28;20537;-60
2023/09/13 05:01:40;;;;;;;8.35;2.33;;;16.00;99.90;;;;;;5086402;28;20043;-59
2023/09/13 05:04:06;;;;;;;12.90;3.90;;;15.90;99.90;;;;;;5075647;28;20040;-60
2023/09/13 05:06:31;;;;;;;9.05;3.03;;;15.80;99.90;;;;;;5104291;28;20051;-60
2023/09/13 05:08:58;;;;;;;11.55;2.97;;;15.70;99.90;;;;;;5089781;28;20067;-60
2023/09/13 05:11:24;;;;;;;11.57;2.55;;;15.60;99.90;;;;;;5088223;28;20112;-60
2023/09/13 05:13:51;;;;;;;10.43;3.17;;;15.60;99.90;;;;;;5101005;28;20494;-60
2023/09/13 05:16:20;;;;;;;12.10;3.03;;;15.50;99.90;;;;;;5105223;27;20031;-60
2023/09/13 05:18:46;;;;;;;7.85;2.97;;;15.50;99.90;;;;;;5096832;28;20038;-60
2023/09/13 05:21:12;;;;;;;11.70;3.00;;;15.50;99.90;;;;;;5103126;28;20043;-60
2023/09/13 05:23:38;;;;;;;14.50;3.40;;;15.40;99.90;;;;;;5096286;28;20181;-59
2023/09/13 05:26:04;;;;;;;15.40;3.65;;;15.40;99.90;;;;;;5100866;28;20554;-59
2023/09/13 05:28:33;;;;;;;13.13;3.35;;;15.40;99.90;;;;;;5104980;28;20028;-60
2023/09/13 05:31:05;;;;;;;16.02;4.60;;;15.30;99.90;;;;;;5102420;28;20629;-60
2023/09/13 05:33:34;;;;;;;15.60;3.55;;;15.30;99.90;;;;;;5101361;28;20035;-58
2023/09/13 05:36:00;;;;;;;11.68;3.65;;;15.30;99.90;;;;;;5086337;28;20043;-59
2023/09/13 05:38:26;;;;;;;10.85;4.05;;;15.30;99.90;;;;;;5101013;27;20415;-59
2023/09/13 05:40:52;;;;;;;14.07;3.15;;;15.20;99.90;;;;;;5104697;28;20486;-60
2023/09/13 05:43:17;;;;;;;12.05;3.78;;;15.20;99.90;;;;;;5099785;28;20582;-60
2023/09/13 05:45:43;;;;;;;9.32;3.28;;;15.20;99.90;;;;;;5081590;28;20420;-60
2023/09/13 05:48:09;;;;;;;10.57;3.30;;;15.10;99.90;;;;;;5095795;28;20044;-58
2023/09/13 05:50:34;;;;;;;10.65;4.10;;;15.10;99.90;;;;;;5082969;28;20036;-60
2023/09/13 05:53:00;;;;;;;10.55;3.83;;;15.10;99.90;;;;;;5105276;28;20695;-59
2023/09/13 05:55:26;;;;;;;11.25;3.47;;;15.10;99.90;;;;;;5101152;28;20051;-60
2023/09/13 05:57:52;;;;;;;12.13;3.40;;;15.10;99.90;;;;;;5082073;28;20682;-58
2023/09/13 06:00:18;;;;;;;16.42;4.00;;;15.20;99.90;;;;;;5105803;28;20024;-60
2023/09/13 06:02:44;;;;;;;12.73;3.53;;;15.10;99.90;;;;;;5098566;28;20103;-60
2023/09/13 06:05:10;;;;;;;12.18;3.88;;;15.20;99.90;;;;;;5082007;28;20032;-59
2023/09/13 06:07:37;;;;;;;14.68;4.38;;;15.20;99.90;;;;;;5103154;28;20036;-60
2023/09/13 06:10:03;;;;;;;11.30;3.63;;;15.20;99.90;;;;;;5096181;28;20494;-59
2023/09/13 06:12:30;;;;;;;13.73;4.22;;;15.20;99.90;;;;;;5081205;28;20062;-60
2023/09/13 06:14:57;;;;;;;9.38;3.63;;;15.30;99.90;;;;;;5101417;28;20055;-57
2023/09/13 06:17:23;;;;;;;10.10;3.15;;;15.30;99.90;;;;;;5086711;28;20490;-60
2023/09/13 06:19:50;;;;;;;11.68;3.58;;;15.30;99.90;;;;;;5102778;28;20031;-57
2023/09/13 06:22:17;;;;;;;12.05;3.47;;;15.30;99.90;;;;;;5102199;28;20067;-60
2023/09/13 06:24:46;;;;;;;13.25;3.10;;;15.30;99.90;;;;;;5105658;27;20048;-59
2023/09/13 06:27:12;;;;;;;13.30;3.35;;;15.30;99.90;;;;;;5118234;27;20177;-61
2023/09/13 06:29:38;;;;;;;8.15;3.20;;;15.40;99.90;;;;;;5101365;28;20039;-59
2023/09/13 06:32:07;;;;;;;15.82;3.40;;;15.40;99.90;;;;;;5083176;28;20677;-59
2023/09/13 06:34:33;;;;;;;10.05;2.42;;;15.40;99.90;;;;;;5101815;28;20046;-61
2023/09/13 06:36:59;;;;;;;11.40;3.35;;;15.40;99.90;;;;;;5097994;28;20040;-59
2023/09/13 06:39:25;;;;;;;12.32;2.17;;;15.50;99.90;;;;;;5079584;28;20402;-60
2023/09/13 06:41:51;;;;;;;8.63;2.28;;;15.50;99.90;;;;;;5079280;28;20475;-58
2023/09/13 06:44:17;;;;;;;7.43;1.73;;;15.40;99.90;;;;;;5070247;28;20203;-59
2023/09/13 06:46:43;;;;;;;10.52;2.60;;;15.40;99.90;;;;;;5085874;28;20534;-59
2023/09/13 06:49:09;;;;;;;7.05;1.95;;;15.40;99.90;;;;;;5096420;28;20364;-60
2023/09/13 06:51:34;;;;;;;7.63;2.08;;;15.40;99.90;;;;;;5081307;28;20043;-60
2023/09/13 06:54:01;;;;;;;6.97;1.95;;;15.40;99.90;;;;;;5100437;28;20058;-59
2023/09/13 06:56:27;;;;;;;7.78;2.15;;;15.50;99.90;;;;;;5078623;28;20050;-60
2023/09/13 06:58:55;;;;;;;7.65;1.85;;;15.50;99.90;;;;;;5099899;27;20043;-58
2023/09/13 07:01:21;;;;;;;8.35;2.10;;;15.50;99.90;;;;;;5095765;28;20124;-60
2023/09/13 07:03:47;;;;;;;8.13;1.58;;;15.50;99.90;;;;;;5086990;28;20460;-58
2023/09/13 07:06:13;;;;;;;5.32;2.00;;;15.50;99.90;;;;;;5100090;28;20031;-61
2023/09/13 07:08:38;;;;;;;5.07;2.00;;;15.50;99.90;;;;;;5094879;27;20074;-60
2023/09/13 07:11:04;;;;;;;6.30;1.75;;;15.50;99.90;;;;;;5102987;28;20043;-60
2023/09/13 07:13:30;;;;;;;7.45;1.80;;;15.50;99.90;;;;;;5080539;28;20062;-60
2023/09/13 07:15:55;;;;;;;5.63;1.58;;;15.50;99.90;;;;;;5081811;28;20075;-60
2023/09/13 07:18:23;;;;;;;6.90;1.50;;;15.50;99.90;;;;;;5098303;28;20045;-59
2023/09/13 07:20:48;;;;;;;7.57;1.50;;;15.50;99.90;;;;;;5096684;28;20040;-60
2023/09/13 07:23:14;;;;;;;7.43;1.80;;;15.50;99.90;;;;;;5095895;28;20043;-59
2023/09/13 07:25:40;;;;;;;8.15;1.98;;;15.50;99.90;;;;;;5097591;28;20039;-59
2023/09/13 07:28:06;;;;;;;9.18;2.10;;;15.60;99.90;;;;;;5071971;28;20027;-59
2023/09/13 07:30:31;;;;;;;9.35;2.05;;;15.60;99.90;;;;;;5092037;28;20068;-60
2023/09/13 07:32:57;;;;;;;11.90;2.67;;;15.60;99.90;;;;;;5092866;28;20043;-59
2023/09/13 07:35:23;;;;;;;9.02;1.90;;;15.70;99.90;;;;;;5100941;28;20039;-59
2023/09/13 07:37:49;;;;;;;10.68;2.28;;;15.70;99.90;;;;;;5070686;28;20565;-59
2023/09/13 07:40:14;;;;;;;11.50;2.13;;;15.80;99.90;;;;;;5078507;28;20130;-60
2023/09/13 07:42:40;;;;;;;8.02;2.10;;;15.90;99.90;;;;;;5095591;28;20035;-60
2023/09/13 07:45:07;;;;;;;9.73;2.30;;;15.90;99.90;;;;;;5095024;28;20036;-59
2023/09/13 07:47:33;;;;;;;8.13;1.70;;;15.90;99.90;;;;;;5095847;28;20047;-60
2023/09/13 07:49:59;;;;;;;6.15;1.70;;;15.90;99.90;;;;;;5100857;28;20039;-60
2023/09/13 07:52:26;;;;;;;7.13;1.80;;;16.00;99.90;;;;;;5082290;28;20040;-60
2023/09/13 07:54:52;;;;;;;8.07;2.20;;;16.10;99.90;;;;;;5083788;28;20071;-60
2023/09/13 07:57:18;;;;;;;7.97;2.03;;;16.10;99.90;;;;;;5096261;28;20524;-60
2023/09/13 07:59:44;;;;;;;7.68;2.17;;;16.20;99.90;;;;;;5103885;28;20071;-60
2023/09/13 08:02:10;;;;;;;7.28;2.08;;;16.30;99.90;;;;;;5107515;28;20046;-60
2023/09/13 08:04:36;;;;;;;8.25;2.20;;;16.30;99.90;;;;;;5107806;28;20100;-59
2023/09/13 08:07:02;;;;;;;6.90;2.10;;;16.40;99.90;;;;;;5107065;28;20071;-60
2023/09/13 08:09:28;;;;;;;10.13;2.67;;;16.40;99.90;;;;;;5092080;28;20151;-59
2023/09/13 08:11:54;;;;;;;8.57;2.45;;;16.40;99.90;;;;;;5093284;28;20039;-59
2023/09/13 08:14:20;;;;;;;11.40;3.00;;;16.40;99.90;;;;;;5106925;28;20035;-58
2023/09/13 08:16:46;;;;;;;9.68;2.63;;;16.40;99.90;;;;;;5104367;28;20044;-59
2023/09/13 08:19:12;;;;;;;9.77;2.97;;;16.40;99.90;;;;;;5110266;28;20039;-58
2023/09/13 08:21:38;;;;;;;13.05;3.08;;;16.40;99.90;;;;;;5090118;28;20054;-60
2023/09/13 08:24:04;;;;;;;19.58;4.13;;;16.40;99.90;;;;;;5100973;28;20043;-59
2023/09/13 08:26:30;;;;;;;12.23;3.72;;;16.30;99.90;;;;;;5088907;28;20048;-60
2023/09/13 08:28:57;;;;;;;14.02;3.65;;;16.30;99.90;;;;;;5099890;28;20092;-59
2023/09/13 08:31:24;;;;;;;16.40;3.58;;;16.30;99.90;;;;;;5103329;28;20096;-59
2023/09/13 08:33:51;;;;;;;11.52;3.30;;;16.30;99.90;;;;;;5085478;28;20076;-60
2023/09/13 08:36:19;;;;;;;15.63;4.10;;;16.20;99.90;;;;;;5085342;28;20047;-60
2023/09/13 08:38:45;;;;;;;11.20;3.40;;;16.20;99.90;;;;;;5109179;28;20083;-58
2023/09/13 08:41:14;;;;;;;11.77;3.50;;;16.20;99.90;;;;;;5108654;28;20067;-60
2023/09/13 08:43:41;;;;;;;14.05;3.63;;;16.20;99.90;;;;;;5109293;28;20032;-61
2023/09/13 08:46:07;;;;;;;11.88;3.92;;;16.20;99.90;;;;;;5109023;28;20424;-59
2023/09/13 08:48:34;;;;;;;12.98;3.25;;;16.20;99.90;;;;;;5104390;28;20441;-59
2023/09/13 08:51:03;;;;;;;9.70;3.50;;;16.30;99.90;;;;;;5091050;28;20096;-59
2023/09/13 08:53:31;;;;;;;15.02;3.72;;;16.40;99.90;;;;;;5106231;28;20035;-60
2023/09/13 08:55:59;;;;;;;13.57;3.25;;;16.40;99.90;;;;;;5084912;28;20051;-60
2023/09/13 08:58:26;;;;;;;10.68;3.05;;;16.50;99.90;;;;;;5100789;28;20046;-61
2023/09/13 09:00:57;;;;;;;9.52;2.92;;;16.50;99.90;;;;;;5105806;28;20063;-60
2023/09/13 09:03:26;;;;;;;12.32;3.80;;;16.40;99.90;;;;;;5104852;28;20633;-59
2023/09/13 09:05:53;;;;;;;12.50;3.85;;;16.30;99.90;;;;;;5082977;28;20047;-58
2023/09/13 09:08:19;;;;;;;14.00;3.85;;;16.10;99.90;;;;;;5090281;28;20494;-58
2023/09/13 09:10:47;;;;;;;13.88;4.00;;;16.00;99.90;;;;;;5100146;28;20079;-58
2023/09/13 09:13:14;;;;;;;10.48;3.72;;;16.00;99.90;;;;;;5083655;28;20035;-58
2023/09/13 09:15:40;;;;;;;11.00;3.38;;;15.90;99.90;;;;;;5105045;28;20039;-60
2023/09/13 09:18:09;;;;;;;12.10;3.40;;;15.90;99.90;;;;;;5102937;28;20444;-59
2023/09/13 09:20:38;;;;;;;10.25;4.05;;;15.90;99.90;;;;;;5099025;28;20635;-60
2023/09/13 09:23:08;;;;;;;10.38;4.25;;;15.90;99.90;;;;;;5079167;28;20047;-60
2023/09/13 09:25:39;;;;;;;12.98;4.55;;;16.00;99.90;;;;;;5099492;27;20042;-59
2023/09/13 09:28:05;;;;;;;8.20;3.55;;;16.00;99.90;;;;;;5102521;27;20051;-58
2023/09/13 09:30:33;;;;;;;7.32;3.25;;;16.00;99.90;;;;;;5085237;28;20043;-60
2023/09/13 09:33:06;;;;;;;5.78;3.00;;;16.00;99.90;;;;;;5095193;27;20126;-60
2023/09/13 09:35:33;;;;;;;8.93;3.53;;;16.10;99.90;;;;;;5083063;28;20081;-60
2023/09/13 09:37:59;;;;;;;6.45;3.00;;;16.10;99.90;;;;;;5099679;28;20100;-59
2023/09/13 09:40:24;;;;;;;9.88;3.10;;;16.20;99.90;;;;;;5089288;28;20055;-59
2023/09/13 09:42:54;;;;;;;6.50;2.72;;;16.40;99.90;;;;;;5098665;28;20040;-56
2023/09/13 09:45:24;;;;;;;8.75;3.00;;;16.40;99.90;;;;;;5081263;28;20031;-57
2023/09/13 09:47:50;;;;;;;7.07;3.22;;;16.50;99.90;;;;;;5099755;28;20093;-59
2023/09/13 09:50:17;;;;;;;8.02;3.15;;;16.60;99.90;;;;;;5101313;28;20122;-58
2023/09/13 09:52:48;;;;;;;7.05;3.00;;;16.70;99.90;;;;;;5103959;28;20641;-58
2023/09/13 09:55:15;;;;;;;6.55;2.83;;;17.00;99.90;;;;;;5100724;28;20550;-58
2023/09/13 09:57:49;;;;;;;5.30;2.40;;;17.10;99.90;;;;;;5099055;28;20402;-59
2023/09/13 10:00:15;;;;;;;7.82;3.03;;;17.30;99.90;;;;;;5095289;28;20048;-59
2023/09/13 10:02:44;;;;;;;7.15;3.08;;;17.30;99.90;;;;;;5100183;28;20108;-57
2023/09/13 10:05:10;;;;;;;10.35;3.28;;;17.50;99.90;;;;;;5080184;28;20093;-59
2023/09/13 10:07:42;;;;;;;9.07;3.42;;;17.70;99.90;;;;;;5097247;28;20085;-59
2023/09/13 10:10:11;;;;;;;6.70;3.28;;;18.00;99.90;;;;;;5102607;28;20071;-60
2023/09/13 10:12:44;;;;;;;6.80;3.40;;;18.20;99.90;;;;;;5101702;28;20031;-60
2023/09/13 10:15:10;;;;;;;9.85;3.60;;;18.40;99.90;;;;;;5085966;28;20047;-59
2023/09/13 10:17:39;;;;;;;7.63;3.10;;;18.50;99.90;;;;;;5098689;28;20035;-60
2023/09/13 10:20:06;;;;;;;8.88;3.67;;;18.40;99.90;;;;;;5112207;27;20043;-60
2023/09/13 10:22:35;;;;;;;5.55;3.20;;;18.50;99.90;;;;;;5101521;28;20048;-58
2023/09/13 10:25:06;;;;;;;11.43;4.18;;;18.70;99.90;;;;;;5112644;27;20137;-59
2023/09/13 10:27:34;;;;;;;6.03;2.97;;;18.80;99.90;;;;;;5099716;28;20044;-58
2023/09/13 10:30:04;;;;;;;7.15;2.83;;;18.90;99.90;;;;;;5081929;28;20039;-61
2023/09/13 10:32:43;;;;;;;7.55;2.55;;;18.80;99.90;;;;;;5083251;28;20110;-60
2023/09/13 10:35:11;;;;;;;6.20;2.58;;;18.70;99.90;;;;;;5079081;28;20036;-58
2023/09/13 10:38:02;;;;;;;6.82;2.60;;;18.70;99.90;;;;;;5084211;28;20046;-58
2023/09/13 10:40:50;;;;;;;8.13;2.22;;;18.60;99.90;;;;;;5105275;28;20114;-58
2023/09/13 10:43:17;;;;;;;8.63;2.30;;;18.40;99.90;;;;;;5093917;28;20086;-58
2023/09/13 10:45:43;;;;;;;9.30;2.20;;;18.50;99.90;;;;;;5096447;28;20505;-59
2023/09/13 10:48:10;;;;;;;5.50;2.40;;;18.40;99.90;;;;;;5097437;28;20119;-60
2023/09/13 10:50:37;;;;;;;4.55;1.95;;;18.50;99.90;;;;;;5101383;28;20047;-60
2023/09/13 10:53:03;;;;;;;8.82;2.42;;;18.50;99.90;;;;;;5095958;28;20059;-59
2023/09/13 10:55:31;;;;;;;6.57;2.47;;;18.80;99.90;;;;;;5098966;28;20494;-59
2023/09/13 10:57:59;;;;;;;12.05;3.47;;;18.70;99.90;;;;;;5095743;28;20116;-60
2023/09/13 11:00:31;;;;;;;9.48;2.42;;;18.80;99.90;;;;;;5105615;28;20716;-58
2023/09/13 11:02:58;;;;;;;7.80;2.17;;;19.10;99.90;;;;;;5097153;28;20151;-60
2023/09/13 11:05:24;;;;;;;9.13;2.10;;;19.30;99.90;;;;;;5084055;28;20774;-60
2023/09/13 11:07:49;;;;;;;10.02;2.55;;;19.40;99.90;;;;;;5098068;28;20035;-60
2023/09/13 11:10:17;;;;;;;6.88;2.55;;;19.30;99.90;;;;;;5092575;28;20626;-59
2023/09/13 11:12:48;;;;;;;8.50;2.97;;;19.20;99.90;;;;;;5093695;28;20042;-59
2023/09/13 11:15:25;;;;;;;7.05;2.70;;;19.20;99.90;;;;;;5097263;28;20044;-58
2023/09/13 11:17:56;;;;;;;5.22;1.80;;;19.30;99.90;;;;;;5067091;28;20040;-60
2023/09/13 11:20:23;;;;;;;9.63;2.53;;;19.60;99.90;;;;;;5102784;28;20039;-60
2023/09/13 11:23:09;;;;;;;7.03;2.25;;;19.90;99.90;;;;;;5101273;28;20446;-58
2023/09/13 11:25:49;;;;;;;4.65;2.42;;;19.80;99.90;;;;;;5098642;28;20039;-59
2023/09/13 11:28:37;;;;;;;7.00;2.42;;;19.80;99.90;;;;;;5100820;28;20094;-59
2023/09/13 11:31:04;;;;;;;7.90;2.40;;;19.70;99.90;;;;;;5085097;28;20046;-59
2023/09/13 11:33:31;;;;;;;5.22;2.13;;;19.50;99.90;;;;;;5081837;28;20040;-58
2023/09/13 11:35:58;;;;;;;7.10;2.63;;;19.40;99.90;;;;;;5098031;28;20096;-59
2023/09/13 11:38:26;;;;;;;8.18;2.47;;;19.50;99.90;;;;;;5084387;28;20071;-59
2023/09/13 11:40:56;;;;;;;5.05;2.22;;;19.60;99.90;;;;;;5101457;28;20572;-58
2023/09/13 11:43:23;;;;;;;5.43;2.05;;;19.90;99.90;;;;;;5067989;28;20039;-59
2023/09/13 11:45:50;;;;;;;7.65;2.40;;;19.90;99.90;;;;;;5078395;28;20097;-58
2023/09/13 11:48:41;;;;;;;6.03;2.25;;;19.90;99.90;;;;;;5100723;28;20028;-60
2023/09/13 11:51:12;;;;;;;6.20;2.28;;;19.90;99.90;;;;;;5084197;28;20138;-61
2023/09/13 11:53:39;;;;;;;6.00;2.47;;;19.90;99.90;;;;;;5098752;28;20075;-59
2023/09/13 11:56:05;;;;;;;6.18;2.50;;;19.90;99.90;;;;;;5070717;28;20048;-61
2023/09/13 11:58:33;;;;;;;8.10;2.20;;;20.20;99.90;;;;;;5084069;28;20053;-60
2023/09/13 12:01:00;;;;;;;5.68;2.10;;;20.40;99.90;;;;;;5101876;28;20044;-59
2023/09/13 12:03:39;;;;;;;9.32;2.45;;;20.00;99.90;;;;;;5102923;28;20079;-59
2023/09/13 12:06:05;;;;;;;7.20;2.30;;;19.70;99.90;;;;;;5103004;28;20036;-59
2023/09/13 12:08:34;;;;;;;6.38;2.00;;;19.40;99.90;;;;;;5101246;28;20032;-58
2023/09/13 12:11:06;;;;;;;6.97;2.00;;;19.30;99.90;;;;;;5101248;28;20036;-59
2023/09/13 12:13:43;;;;;;;5.13;1.80;;;19.20;99.90;;;;;;5099218;28;20051;-60
2023/09/13 12:16:08;;;;;;;6.63;2.05;;;19.00;99.90;;;;;;5100047;28;20490;-60
2023/09/13 12:18:36;;;;;;;5.97;1.90;;;18.80;99.90;;;;;;5099713;28;20140;-60
2023/09/13 12:21:02;;;;;;;4.50;1.70;;;18.70;99.90;;;;;;5100189;28;20047;-61
2023/09/13 12:23:32;;;;;;;3.47;1.55;;;18.90;99.90;;;;;;5103936;28;20043;-59
2023/09/13 12:25:58;;;;;;;6.53;1.35;;;19.20;99.90;;;;;;5101458;28;20437;-59
2023/09/13 12:28:35;;;;;;;6.18;1.83;;;19.60;99.90;;;;;;5106485;28;20035;-58
2023/09/13 12:31:06;;;;;;;4.63;1.95;;;19.90;99.90;;;;;;5099058;28;20091;-59
2023/09/13 12:33:34;;;;;;;7.40;1.80;;;20.20;99.90;;;;;;5082228;28;20047;-60
2023/09/13 12:36:03;;;;;;;7.10;1.65;;;20.40;99.90;;;;;;5103096;28;20071;-60
2023/09/13 12:38:41;;;;;;;5.07;1.40;;;20.60;99.90;;;;;;5102351;28;20055;-60
2023/09/13 12:41:07;;;;;;;7.38;2.00;;;20.70;99.90;;;;;;5098304;28;20044;-59
2023/09/13 12:43:35;;;;;;;7.90;2.03;;;20.50;99.90;;;;;;5104665;28;20075;-59
2023/09/13 12:46:02;;;;;;;8.10;2.10;;;20.20;99.90;;;;;;5102704;28;20055;-59